Time;durP1;ratioP1;P1;durP2;ratioP2;P2;SDS_P1;SDS_P2;PMS_P1;PMS_P2;Temp;Humidity;BMP_temperature;BMP_pressure;BME280_temperature;BME280_humidity;BME280_pressure;Samples;Min_cycle;Max_cycle;Signal;HPM_P1;HPM_P2
2021/11/21 00:01:49;;;;;;;6.60;3.58;;;;;;;;;;5092464;28;20027;-66
2021/11/21 00:04:15;;;;;;;5.40;3.38;;;;;;;;;;5073591;28;20131;-68
2021/11/21 00:06:41;;;;;;;5.05;3.13;;;;;;;;;;5091895;28;20017;-71
2021/11/21 00:09:07;;;;;;;7.60;3.70;;;;;;;;;;5091938;28;20020;-74
2021/11/21 00:11:33;;;;;;;5.88;3.50;;;;;;;;;;5073864;28;20028;-66
2021/11/21 00:14:01;;;;;;;7.80;3.45;;;;;;;;;;5092022;28;20020;-63
2021/11/21 00:16:28;;;;;;;5.63;3.50;;;;;;;;;;5073681;28;20031;-62
2021/11/21 00:18:54;;;;;;;6.53;3.58;;;;;;;;;;5092313;28;20383;-72
2021/11/21 00:21:20;;;;;;;6.63;3.58;;;;;;;;;;5091746;28;20387;-71
2021/11/21 00:23:47;;;;;;;6.35;3.28;;;;;;;;;;5073855;28;20471;-73
2021/11/21 00:26:13;;;;;;;5.80;3.33;;;;;;;;;;5091583;28;20099;-71
2021/11/21 00:28:39;;;;;;;6.20;3.70;;;;;;;;;;5091870;28;20364;-66
2021/11/21 00:31:05;;;;;;;6.70;3.60;;;;;;;;;;5073570;28;20107;-71
2021/11/21 00:33:32;;;;;;;7.30;3.30;;;;;;;;;;5091712;28;20069;-70
2021/11/21 00:35:58;;;;;;;5.90;3.35;;;;;;;;;;5107222;28;20076;-73
2021/11/21 00:38:24;;;;;;;5.53;3.28;;;;;;;;;;5090106;28;20042;-75
2021/11/21 00:40:52;;;;;;;6.43;3.45;;;;;;;;;;5107491;28;20043;-75
2021/11/21 00:43:20;;;;;;;5.25;3.28;;;;;;;;;;5111568;28;20650;-73
2021/11/21 00:45:46;;;;;;;5.85;3.45;;;;;;;;;;5111661;28;20015;-73
2021/11/21 00:48:19;;;;;;;6.20;3.65;;;;;;;;;;5111325;28;20020;-66
2021/11/21 00:50:45;;;;;;;5.57;3.28;;;;;;;;;;5109289;28;20485;-73
2021/11/21 00:53:11;;;;;;;5.43;3.13;;;;;;;;;;5109723;28;20038;-68
2021/11/21 00:55:39;;;;;;;6.40;3.50;;;;;;;;;;5111168;28;20700;-73
2021/11/21 00:58:09;;;;;;;5.35;2.97;;;;;;;;;;5111537;28;20047;-75
2021/11/21 01:00:36;;;;;;;5.57;3.38;;;;;;;;;;5106744;28;20471;-72
2021/11/21 01:03:02;;;;;;;6.10;3.22;;;;;;;;;;5092739;28;20031;-73
2021/11/21 01:05:28;;;;;;;6.57;3.42;;;;;;;;;;5111445;28;20023;-68
2021/11/21 01:07:55;;;;;;;7.45;3.60;;;;;;;;;;5111298;28;20030;-70
2021/11/21 01:10:21;;;;;;;4.78;2.95;;;;;;;;;;5092687;28;20028;-67
2021/11/21 01:12:47;;;;;;;5.80;3.42;;;;;;;;;;5109778;28;20072;-72
2021/11/21 01:15:15;;;;;;;7.50;3.30;;;;;;;;;;5114957;28;20030;-73
2021/11/21 01:17:41;;;;;;;5.18;3.08;;;;;;;;;;5115129;28;20355;-65
2021/11/21 01:20:08;;;;;;;5.03;3.10;;;;;;;;;;5097703;28;20030;-73
2021/11/21 01:22:35;;;;;;;6.13;3.58;;;;;;;;;;5118469;28;20024;-74
2021/11/21 01:25:02;;;;;;;5.93;3.65;;;;;;;;;;5098381;28;20028;-74
2021/11/21 01:27:28;;;;;;;7.57;3.20;;;;;;;;;;5096171;28;20024;-73
2021/11/21 01:29:54;;;;;;;8.13;2.92;;;;;;;;;;5094674;28;20457;-73
2021/11/21 01:32:20;;;;;;;6.00;3.38;;;;;;;;;;5094457;28;20046;-73
2021/11/21 01:34:46;;;;;;;6.47;3.20;;;;;;;;;;5077594;28;20016;-71
2021/11/21 01:37:13;;;;;;;5.65;3.05;;;;;;;;;;5093632;28;20056;-74
2021/11/21 01:39:39;;;;;;;11.50;3.85;;;;;;;;;;5093399;28;20119;-72
2021/11/21 01:42:05;;;;;;;5.57;3.22;;;;;;;;;;5076712;28;20048;-72
2021/11/21 01:44:31;;;;;;;5.50;3.33;;;;;;;;;;5094626;28;20063;-74
2021/11/21 01:46:57;;;;;;;7.65;3.10;;;;;;;;;;5094207;28;20407;-74
2021/11/21 01:49:24;;;;;;;5.43;3.30;;;;;;;;;;5093963;28;20055;-73
2021/11/21 01:51:50;;;;;;;5.30;3.00;;;;;;;;;;5093646;28;20050;-72
2021/11/21 01:54:17;;;;;;;4.72;2.75;;;;;;;;;;5112406;28;20027;-73
2021/11/21 01:56:43;;;;;;;6.50;2.90;;;;;;;;;;5103285;28;20140;-74
2021/11/21 01:59:09;;;;;;;5.80;3.33;;;;;;;;;;5094537;28;20020;-74
2021/11/21 02:01:35;;;;;;;5.00;2.90;;;;;;;;;;5094388;28;20015;-70
2021/11/21 02:04:02;;;;;;;6.78;3.35;;;;;;;;;;5114029;28;20110;-71
2021/11/21 02:06:29;;;;;;;4.95;2.97;;;;;;;;;;5114189;28;20074;-71
2021/11/21 02:08:56;;;;;;;4.82;2.80;;;;;;;;;;5084439;28;20035;-71
2021/11/21 02:11:23;;;;;;;5.22;2.88;;;;;;;;;;5093800;28;20020;-71
2021/11/21 02:13:50;;;;;;;7.07;3.00;;;;;;;;;;5093792;28;20028;-71
2021/11/21 02:16:17;;;;;;;5.35;3.13;;;;;;;;;;5094588;28;20043;-74
2021/11/21 02:18:45;;;;;;;5.53;3.20;;;;;;;;;;5113909;28;20058;-75
2021/11/21 02:21:12;;;;;;;5.40;3.10;;;;;;;;;;5113841;28;20015;-73
2021/11/21 02:23:38;;;;;;;5.07;3.03;;;;;;;;;;5112546;28;20092;-70
2021/11/21 02:26:04;;;;;;;6.28;3.50;;;;;;;;;;5113608;28;20050;-74
2021/11/21 02:28:31;;;;;;;5.68;2.97;;;;;;;;;;5113427;28;20023;-75
2021/11/21 02:30:57;;;;;;;5.43;2.95;;;;;;;;;;5111704;28;20068;-68
2021/11/21 02:33:23;;;;;;;6.78;2.85;;;;;;;;;;5111071;28;20024;-63
2021/11/21 02:35:51;;;;;;;4.53;2.78;;;;;;;;;;5092730;28;20032;-64
2021/11/21 02:38:18;;;;;;;4.88;2.70;;;;;;;;;;5098909;28;20149;-65
2021/11/21 02:40:47;;;;;;;4.82;2.97;;;;;;;;;;5113323;28;20043;-74
2021/11/21 02:43:17;;;;;;;6.78;2.92;;;;;;;;;;5113298;28;20056;-74
2021/11/21 02:45:43;;;;;;;4.70;2.65;;;;;;;;;;5113221;28;20032;-75
2021/11/21 02:48:09;;;;;;;6.05;3.05;;;;;;;;;;5113202;28;20030;-73
2021/11/21 02:50:35;;;;;;;5.18;2.70;;;;;;;;;;5109156;28;20020;-75
2021/11/21 02:53:02;;;;;;;4.65;2.83;;;;;;;;;;5092908;28;20016;-73
2021/11/21 02:55:29;;;;;;;4.20;2.60;;;;;;;;;;5074633;28;20028;-75
2021/11/21 02:57:56;;;;;;;6.78;2.50;;;;;;;;;;5092844;28;20016;-75
2021/11/21 03:00:22;;;;;;;4.68;2.63;;;;;;;;;;5092778;28;20487;-71
2021/11/21 03:02:48;;;;;;;5.55;3.28;;;;;;;;;;5092697;28;20024;-68
2021/11/21 03:05:15;;;;;;;4.88;2.72;;;;;;;;;;5074473;28;20044;-75
2021/11/21 03:07:41;;;;;;;5.15;3.00;;;;;;;;;;5093310;28;20016;-74
2021/11/21 03:10:08;;;;;;;4.50;2.65;;;;;;;;;;5092400;28;20056;-67
2021/11/21 03:12:35;;;;;;;7.13;3.20;;;;;;;;;;5092365;28;20024;-68
2021/11/21 03:15:01;;;;;;;5.68;3.20;;;;;;;;;;5106643;28;20012;-69
2021/11/21 03:17:27;;;;;;;5.10;3.08;;;;;;;;;;5112394;28;20027;-69
2021/11/21 03:19:53;;;;;;;5.28;2.90;;;;;;;;;;5112760;28;20059;-72
2021/11/21 03:22:19;;;;;;;5.18;3.05;;;;;;;;;;5112602;28;20034;-70
2021/11/21 03:24:45;;;;;;;4.75;2.70;;;;;;;;;;5107043;28;20039;-71
2021/11/21 03:27:12;;;;;;;6.35;3.13;;;;;;;;;;5073859;28;20016;-74
2021/11/21 03:29:38;;;;;;;5.53;2.67;;;;;;;;;;5100651;28;20015;-74
2021/11/21 03:32:04;;;;;;;5.57;2.78;;;;;;;;;;5105138;28;20475;-70
2021/11/21 03:34:31;;;;;;;5.00;2.80;;;;;;;;;;5105046;28;20023;-68
2021/11/21 03:36:57;;;;;;;5.30;2.83;;;;;;;;;;5112469;28;20050;-70
2021/11/21 03:39:23;;;;;;;5.10;3.13;;;;;;;;;;5112886;28;20031;-73
2021/11/21 03:41:50;;;;;;;4.97;2.65;;;;;;;;;;5106955;28;20040;-66
2021/11/21 03:44:16;;;;;;;5.47;3.03;;;;;;;;;;5092416;28;20040;-71
2021/11/21 03:46:43;;;;;;;4.70;2.67;;;;;;;;;;5092452;28;20073;-66
2021/11/21 03:49:10;;;;;;;6.03;2.50;;;;;;;;;;5092172;28;20035;-69
2021/11/21 03:51:36;;;;;;;4.72;2.50;;;;;;;;;;5091958;28;20543;-66
2021/11/21 03:54:03;;;;;;;5.13;2.80;;;;;;;;;;5091847;28;20027;-73
2021/11/21 03:56:29;;;;;;;5.13;2.97;;;;;;;;;;5091680;28;20099;-75
2021/11/21 03:58:55;;;;;;;5.47;2.58;;;;;;;;;;5090792;28;20012;-70
2021/11/21 04:01:22;;;;;;;5.97;2.58;;;;;;;;;;5073895;28;20024;-73
2021/11/21 04:03:48;;;;;;;6.55;2.85;;;;;;;;;;5092118;28;20032;-73
2021/11/21 04:06:14;;;;;;;4.18;2.30;;;;;;;;;;5092253;28;20103;-73
2021/11/21 04:08:42;;;;;;;4.40;2.30;;;;;;;;;;5091937;28;20374;-73
2021/11/21 04:11:08;;;;;;;6.68;2.78;;;;;;;;;;5092256;28;20020;-72
2021/11/21 04:13:34;;;;;;;4.72;2.47;;;;;;;;;;5102188;28;20039;-72
2021/11/21 04:16:00;;;;;;;6.25;3.08;;;;;;;;;;5091861;28;20030;-70
2021/11/21 04:18:26;;;;;;;5.00;2.70;;;;;;;;;;5111405;28;20065;-71
2021/11/21 04:20:52;;;;;;;5.30;2.80;;;;;;;;;;5112262;28;20032;-67
2021/11/21 04:23:20;;;;;;;4.93;2.70;;;;;;;;;;5112370;28;20024;-73
2021/11/21 04:25:46;;;;;;;4.22;2.13;;;;;;;;;;5093904;28;20028;-73
2021/11/21 04:28:12;;;;;;;4.78;2.95;;;;;;;;;;5111866;28;20020;-70
2021/11/21 04:30:38;;;;;;;4.93;2.83;;;;;;;;;;5111932;28;20020;-74
2021/11/21 04:33:04;;;;;;;4.85;2.45;;;;;;;;;;5109799;28;20016;-75
2021/11/21 04:35:30;;;;;;;5.10;2.60;;;;;;;;;;5093661;28;20024;-75
2021/11/21 04:37:56;;;;;;;4.70;2.50;;;;;;;;;;5093946;28;20394;-70
2021/11/21 04:40:22;;;;;;;4.85;2.72;;;;;;;;;;5111951;28;20075;-68
2021/11/21 04:42:49;;;;;;;5.35;2.42;;;;;;;;;;5112156;28;20100;-71
2021/11/21 04:45:15;;;;;;;4.93;2.50;;;;;;;;;;5111890;28;20040;-73
2021/11/21 04:47:41;;;;;;;5.53;2.67;;;;;;;;;;5097868;28;20377;-73
2021/11/21 04:50:08;;;;;;;5.85;2.97;;;;;;;;;;5092547;28;20055;-74
2021/11/21 04:52:34;;;;;;;5.30;2.70;;;;;;;;;;5115994;28;20020;-71
2021/11/21 04:55:01;;;;;;;5.88;2.88;;;;;;;;;;5115921;28;20034;-75
2021/11/21 04:57:27;;;;;;;4.00;2.30;;;;;;;;;;5115966;28;20047;-71
2021/11/21 04:59:53;;;;;;;4.05;2.40;;;;;;;;;;5115895;28;20414;-76
2021/11/21 05:02:19;;;;;;;5.32;2.72;;;;;;;;;;5115841;28;20522;-73
2021/11/21 05:04:45;;;;;;;4.45;2.60;;;;;;;;;;5115836;28;20046;-70
2021/11/21 05:07:11;;;;;;;5.25;2.53;;;;;;;;;;5106799;28;20100;-72
2021/11/21 05:09:38;;;;;;;4.78;2.30;;;;;;;;;;5095344;28;20028;-70
2021/11/21 05:12:04;;;;;;;4.40;2.47;;;;;;;;;;5077177;28;20048;-65
2021/11/21 05:14:30;;;;;;;4.13;2.55;;;;;;;;;;5076969;28;20073;-71
2021/11/21 05:16:59;;;;;;;8.60;2.60;;;;;;;;;;5076888;28;20473;-68
2021/11/21 05:19:25;;;;;;;6.82;2.97;;;;;;;;;;5077002;28;20085;-70
2021/11/21 05:21:51;;;;;;;7.75;2.58;;;;;;;;;;5076962;28;20020;-66
2021/11/21 05:24:23;;;;;;;5.30;2.63;;;;;;;;;;5095694;28;20087;-73
2021/11/21 05:26:49;;;;;;;7.20;2.77;;;;;;;;;;5095031;28;20031;-67
2021/11/21 05:29:15;;;;;;;6.07;3.00;;;;;;;;;;5095268;28;20027;-72
2021/11/21 05:31:41;;;;;;;5.47;2.50;;;;;;;;;;5094934;28;20016;-72
2021/11/21 05:34:07;;;;;;;5.05;2.78;;;;;;;;;;5093746;28;20023;-72
2021/11/21 05:36:34;;;;;;;5.50;2.70;;;;;;;;;;5094947;28;20020;-72
2021/11/21 05:39:00;;;;;;;4.50;2.53;;;;;;;;;;5093587;28;20415;-72
2021/11/21 05:41:26;;;;;;;5.63;2.58;;;;;;;;;;5095010;28;20048;-71
2021/11/21 05:43:52;;;;;;;4.43;2.28;;;;;;;;;;5094777;28;20038;-69
2021/11/21 05:46:18;;;;;;;4.13;2.55;;;;;;;;;;5094901;28;20035;-67
2021/11/21 05:48:44;;;;;;;5.97;2.45;;;;;;;;;;5094731;28;20031;-65
2021/11/21 05:51:11;;;;;;;4.28;2.42;;;;;;;;;;5076415;28;20050;-64
2021/11/21 05:53:37;;;;;;;4.28;2.42;;;;;;;;;;5094566;28;20032;-63
2021/11/21 05:56:04;;;;;;;4.10;2.33;;;;;;;;;;5094610;28;20040;-65
2021/11/21 05:58:30;;;;;;;4.43;2.15;;;;;;;;;;5095007;28;20032;-68
2021/11/21 06:00:56;;;;;;;5.97;2.35;;;;;;;;;;5094374;28;20077;-69
2021/11/21 06:03:22;;;;;;;5.55;2.78;;;;;;;;;;5094363;28;20569;-69
2021/11/21 06:05:48;;;;;;;5.70;3.10;;;;;;;;;;5094305;28;20391;-70
2021/11/21 06:08:14;;;;;;;4.18;2.42;;;;;;;;;;5094175;28;20055;-64
2021/11/21 06:10:41;;;;;;;4.25;2.40;;;;;;;;;;5094021;28;20085;-64
2021/11/21 06:13:08;;;;;;;4.88;2.55;;;;;;;;;;5094020;28;20103;-65
2021/11/21 06:15:34;;;;;;;5.55;2.55;;;;;;;;;;5094727;28;20062;-72
2021/11/21 06:18:00;;;;;;;5.40;2.75;;;;;;;;;;5094275;28;20024;-65
2021/11/21 06:20:27;;;;;;;4.57;2.60;;;;;;;;;;5094058;28;20032;-67
2021/11/21 06:22:53;;;;;;;4.78;2.65;;;;;;;;;;5094155;28;20099;-65
2021/11/21 06:25:19;;;;;;;3.67;2.05;;;;;;;;;;5093642;28;20036;-73
2021/11/21 06:27:45;;;;;;;4.57;2.40;;;;;;;;;;5075532;28;20020;-74
2021/11/21 06:30:11;;;;;;;4.53;2.47;;;;;;;;;;5093783;28;20024;-73
2021/11/21 06:32:38;;;;;;;5.32;2.67;;;;;;;;;;5094533;28;20020;-69
2021/11/21 06:35:04;;;;;;;4.93;2.90;;;;;;;;;;5075658;28;20560;-66
2021/11/21 06:37:31;;;;;;;4.68;2.78;;;;;;;;;;5093716;28;20058;-70
2021/11/21 06:39:57;;;;;;;4.13;2.20;;;;;;;;;;5075601;28;20021;-71
2021/11/21 06:42:23;;;;;;;6.25;2.70;;;;;;;;;;5093696;28;20024;-71
2021/11/21 06:44:49;;;;;;;6.18;2.92;;;;;;;;;;5093478;28;20028;-70
2021/11/21 06:47:18;;;;;;;5.00;2.53;;;;;;;;;;5093347;28;20020;-72
2021/11/21 06:49:45;;;;;;;4.78;2.70;;;;;;;;;;5075905;28;20119;-71
2021/11/21 06:52:13;;;;;;;5.05;3.13;;;;;;;;;;5093397;28;20367;-68
2021/11/21 06:54:39;;;;;;;4.45;2.75;;;;;;;;;;5093651;28;20016;-69
2021/11/21 06:57:05;;;;;;;5.47;2.72;;;;;;;;;;5093434;28;20051;-72
2021/11/21 06:59:31;;;;;;;5.18;2.78;;;;;;;;;;5093136;28;20102;-65
2021/11/21 07:01:57;;;;;;;4.95;2.80;;;;;;;;;;5075001;28;20012;-68
2021/11/21 07:04:23;;;;;;;5.32;2.83;;;;;;;;;;5093236;28;20027;-71
2021/11/21 07:06:49;;;;;;;5.20;2.97;;;;;;;;;;5093950;28;20537;-65
2021/11/21 07:09:16;;;;;;;4.63;2.47;;;;;;;;;;5092654;28;20051;-71
2021/11/21 07:11:44;;;;;;;4.82;2.60;;;;;;;;;;5093039;28;20024;-67
2021/11/21 07:14:11;;;;;;;5.15;2.90;;;;;;;;;;5093047;28;20024;-72
2021/11/21 07:16:38;;;;;;;5.53;3.20;;;;;;;;;;5093188;28;20030;-69
2021/11/21 07:19:04;;;;;;;5.80;3.15;;;;;;;;;;5093046;28;20020;-71
2021/11/21 07:21:30;;;;;;;6.22;3.65;;;;;;;;;;5074879;28;20074;-71
2021/11/21 07:23:56;;;;;;;8.20;3.97;;;;;;;;;;5093304;28;20059;-67
2021/11/21 07:26:22;;;;;;;9.40;4.47;;;;;;;;;;5093034;28;20055;-71
2021/11/21 07:28:48;;;;;;;9.27;4.80;;;;;;;;;;5093002;28;20028;-70
2021/11/21 07:31:14;;;;;;;8.80;4.25;;;;;;;;;;5092591;28;20024;-70
2021/11/21 07:33:40;;;;;;;10.27;5.53;;;;;;;;;;5092515;28;20073;-71
2021/11/21 07:36:06;;;;;;;10.60;5.38;;;;;;;;;;5092675;28;20498;-68
2021/11/21 07:38:34;;;;;;;11.52;5.75;;;;;;;;;;5092719;28;20425;-67
2021/11/21 07:41:00;;;;;;;12.77;6.50;;;;;;;;;;5092894;28;20044;-68
2021/11/21 07:43:26;;;;;;;12.43;6.60;;;;;;;;;;5074454;28;20024;-67
2021/11/21 07:45:54;;;;;;;14.23;7.60;;;;;;;;;;5092586;28;20028;-69
2021/11/21 07:48:21;;;;;;;13.82;6.82;;;;;;;;;;5092407;28;20016;-71
2021/11/21 07:50:47;;;;;;;13.90;7.18;;;;;;;;;;5074049;28;20036;-68
2021/11/21 07:53:13;;;;;;;15.15;8.13;;;;;;;;;;5092390;28;20608;-66
2021/11/21 07:55:39;;;;;;;17.73;8.63;;;;;;;;;;5092265;28;20417;-68
2021/11/21 07:58:06;;;;;;;15.43;8.18;;;;;;;;;;5101368;28;20016;-70
2021/11/21 08:00:32;;;;;;;13.88;8.80;;;;;;;;;;5091836;28;20047;-74
2021/11/21 08:02:58;;;;;;;15.98;8.45;;;;;;;;;;5092225;28;20102;-72
2021/11/21 08:05:25;;;;;;;17.60;9.45;;;;;;;;;;5092258;28;20047;-71
2021/11/21 08:07:51;;;;;;;17.40;9.93;;;;;;;;;;5092315;28;20048;-67
2021/11/21 08:10:17;;;;;;;18.13;10.23;;;;;;;;;;5092502;28;20490;-72
2021/11/21 08:12:43;;;;;;;18.08;10.18;;;;;;;;;;5092317;28;20042;-71
2021/11/21 08:15:09;;;;;;;18.95;10.00;;;;;;;;;;5092309;28;20069;-70
2021/11/21 08:17:35;;;;;;;21.58;10.35;;;;;;;;;;5092424;28;20090;-72
2021/11/21 08:20:03;;;;;;;19.45;10.88;;;;;;;;;;5091843;28;20031;-70
2021/11/21 08:22:29;;;;;;;19.13;10.20;;;;;;;;;;5091786;28;20031;-70
2021/11/21 08:24:55;;;;;;;20.75;11.60;;;;;;;;;;5092202;28;20040;-69
2021/11/21 08:27:21;;;;;;;20.98;12.27;;;;;;;;;;5092135;28;20020;-67
2021/11/21 08:29:49;;;;;;;22.85;13.15;;;;;;;;;;5074056;28;20032;-71
2021/11/21 08:32:16;;;;;;;20.58;12.25;;;;;;;;;;5092433;28;20016;-72
2021/11/21 08:34:42;;;;;;;20.75;11.80;;;;;;;;;;5092246;28;20028;-72
2021/11/21 08:37:08;;;;;;;18.75;10.77;;;;;;;;;;5074005;28;20089;-71
2021/11/21 08:39:34;;;;;;;19.65;11.57;;;;;;;;;;5092288;28;20060;-71
2021/11/21 08:42:00;;;;;;;20.23;11.40;;;;;;;;;;5091957;28;20044;-72
2021/11/21 08:44:26;;;;;;;20.33;11.98;;;;;;;;;;5091976;28;20036;-71
2021/11/21 08:46:52;;;;;;;19.13;10.95;;;;;;;;;;5092213;28;20021;-72
2021/11/21 08:49:19;;;;;;;22.77;12.60;;;;;;;;;;5092143;28;20104;-72
2021/11/21 08:51:45;;;;;;;23.48;13.38;;;;;;;;;;5073765;28;20050;-71
2021/11/21 08:54:12;;;;;;;20.27;12.25;;;;;;;;;;5091899;28;20087;-71
2021/11/21 08:56:38;;;;;;;24.20;13.65;;;;;;;;;;5091921;28;20028;-71
2021/11/21 08:59:04;;;;;;;25.88;15.18;;;;;;;;;;5091683;28;20020;-71
2021/11/21 09:01:30;;;;;;;24.35;14.15;;;;;;;;;;5091888;28;20063;-65
2021/11/21 09:03:56;;;;;;;24.60;14.38;;;;;;;;;;5091696;28;20020;-71
2021/11/21 09:06:23;;;;;;;22.85;14.20;;;;;;;;;;5091859;28;20024;-71
2021/11/21 09:08:49;;;;;;;22.55;13.98;;;;;;;;;;5091819;28;20044;-71
2021/11/21 09:11:15;;;;;;;21.50;12.50;;;;;;;;;;5073632;28;20024;-70
2021/11/21 09:13:41;;;;;;;19.73;11.90;;;;;;;;;;5091633;28;20020;-69
2021/11/21 09:16:08;;;;;;;22.10;12.70;;;;;;;;;;5091604;28;20023;-67
2021/11/21 09:18:34;;;;;;;23.13;13.18;;;;;;;;;;5091741;28;20099;-71
2021/11/21 09:21:01;;;;;;;23.27;13.27;;;;;;;;;;5091532;28;20038;-72
2021/11/21 09:23:27;;;;;;;21.40;12.52;;;;;;;;;;5091581;28;20027;-69
2021/11/21 09:25:54;;;;;;;21.58;11.57;;;;;;;;;;5091818;28;20028;-70
2021/11/21 09:28:21;;;;;;;20.40;10.98;;;;;;;;;;5091845;28;20038;-70
2021/11/21 09:30:47;;;;;;;21.05;12.43;;;;;;;;;;5073367;28;20035;-72
2021/11/21 09:33:13;;;;;;;20.02;11.63;;;;;;;;;;5094057;28;20055;-71
2021/11/21 09:35:40;;;;;;;20.30;11.75;;;;;;;;;;5095209;28;20024;-65
2021/11/21 09:38:06;;;;;;;17.27;11.05;;;;;;;;;;5095201;28;20024;-73
2021/11/21 09:40:32;;;;;;;28.30;13.38;;;;;;;;;;5105298;28;20515;-66
2021/11/21 09:42:58;;;;;;;18.10;10.73;;;;;;;;;;5097019;28;20525;-67
2021/11/21 09:45:24;;;;;;;17.90;9.15;;;;;;;;;;5115019;28;20038;-69
2021/11/21 09:47:52;;;;;;;18.98;10.93;;;;;;;;;;5115142;28;20024;-67
2021/11/21 09:50:18;;;;;;;19.25;10.85;;;;;;;;;;5115042;28;20030;-69
2021/11/21 09:52:44;;;;;;;17.88;10.63;;;;;;;;;;5115114;28;20104;-69
2021/11/21 09:55:10;;;;;;;16.27;10.75;;;;;;;;;;5114537;28;20382;-71
2021/11/21 09:57:37;;;;;;;17.35;10.77;;;;;;;;;;5096525;28;20020;-71
2021/11/21 10:00:09;;;;;;;17.88;10.70;;;;;;;;;;5114656;28;20102;-72
2021/11/21 10:02:38;;;;;;;19.20;11.98;;;;;;;;;;5114315;28;20080;-71
2021/11/21 10:05:06;;;;;;;17.10;11.05;;;;;;;;;;5114290;28;20080;-72
2021/11/21 10:07:34;;;;;;;17.50;11.43;;;;;;;;;;5114274;28;20023;-67
2021/11/21 10:10:01;;;;;;;16.75;10.60;;;;;;;;;;5114148;28;20080;-74
2021/11/21 10:12:34;;;;;;;16.75;10.88;;;;;;;;;;5114148;28;20027;-70
2021/11/21 10:15:03;;;;;;;20.13;12.07;;;;;;;;;;5114378;28;20107;-74
2021/11/21 10:17:30;;;;;;;20.42;12.20;;;;;;;;;;5114747;28;20023;-72
2021/11/21 10:20:16;;;;;;;27.10;11.65;;;;;;;;;;5114454;28;20028;-71
2021/11/21 10:23:02;;;;;;;16.55;11.20;;;;;;;;;;5114070;28;20076;-72
2021/11/21 10:25:34;;;;;;;18.30;11.60;;;;;;;;;;5114033;28;20110;-72
2021/11/21 10:28:12;;;;;;;18.45;11.35;;;;;;;;;;5114453;28;20047;-68
2021/11/21 10:30:59;;;;;;;18.58;10.00;;;;;;;;;;5114575;28;20027;-72
2021/11/21 10:33:27;;;;;;;14.82;9.45;;;;;;;;;;5114462;28;20461;-71
2021/11/21 10:36:13;;;;;;;13.35;8.65;;;;;;;;;;5114570;28;20092;-71
2021/11/21 10:38:42;;;;;;;13.65;9.25;;;;;;;;;;5114190;28;20043;-69
2021/11/21 10:41:10;;;;;;;12.77;8.38;;;;;;;;;;5113685;28;20443;-72
2021/11/21 10:43:51;;;;;;;12.35;7.93;;;;;;;;;;5113179;28;20023;-71
2021/11/21 10:46:28;;;;;;;11.35;7.75;;;;;;;;;;5095905;28;20034;-71
2021/11/21 10:48:55;;;;;;;13.27;8.30;;;;;;;;;;5095828;28;20073;-70
2021/11/21 10:51:25;;;;;;;15.38;9.27;;;;;;;;;;5112483;28;20034;-72
2021/11/21 10:53:52;;;;;;;11.35;7.68;;;;;;;;;;5114223;28;20034;-73
2021/11/21 10:56:18;;;;;;;12.77;8.50;;;;;;;;;;5095649;28;20069;-72
2021/11/21 10:58:50;;;;;;;12.50;7.53;;;;;;;;;;5095461;28;20020;-71
2021/11/21 11:01:20;;;;;;;13.18;8.15;;;;;;;;;;5113609;28;20037;-72
2021/11/21 11:04:06;;;;;;;12.80;8.20;;;;;;;;;;5113579;28;20069;-70
2021/11/21 11:06:32;;;;;;;13.10;8.38;;;;;;;;;;5095535;28;20189;-72
2021/11/21 11:09:17;;;;;;;11.90;7.70;;;;;;;;;;5095453;28;20050;-70
2021/11/21 11:11:44;;;;;;;13.50;7.18;;;;;;;;;;5113781;28;20084;-68
2021/11/21 11:14:13;;;;;;;21.38;7.78;;;;;;;;;;5113588;28;20072;-70
2021/11/21 11:16:39;;;;;;;13.85;8.20;;;;;;;;;;5095630;28;20375;-69
2021/11/21 11:19:06;;;;;;;14.23;6.47;;;;;;;;;;5113763;28;20121;-71
2021/11/21 11:21:32;;;;;;;13.30;7.10;;;;;;;;;;5113742;28;20023;-70
2021/11/21 11:23:58;;;;;;;10.55;6.60;;;;;;;;;;5113526;28;20486;-67
2021/11/21 11:26:25;;;;;;;14.65;7.00;;;;;;;;;;5113228;28;20157;-69
2021/11/21 11:28:53;;;;;;;10.25;6.50;;;;;;;;;;5112927;28;20028;-67
2021/11/21 11:31:24;;;;;;;10.30;6.55;;;;;;;;;;5112983;28;20789;-74
2021/11/21 11:33:52;;;;;;;10.15;5.97;;;;;;;;;;5112765;28;20557;-66
2021/11/21 11:36:22;;;;;;;10.13;6.95;;;;;;;;;;5112850;28;20122;-72
2021/11/21 11:39:15;;;;;;;9.52;6.20;;;;;;;;;;5112945;28;20031;-69
2021/11/21 11:41:41;;;;;;;8.90;5.97;;;;;;;;;;5101993;28;20041;-72
2021/11/21 11:44:09;;;;;;;12.30;6.72;;;;;;;;;;5095067;28;20062;-69
2021/11/21 11:46:35;;;;;;;9.82;5.93;;;;;;;;;;5113202;28;20630;-72
2021/11/21 11:49:06;;;;;;;8.48;5.82;;;;;;;;;;5094743;28;20040;-70
2021/11/21 11:51:35;;;;;;;8.38;5.63;;;;;;;;;;5112887;28;20015;-69
2021/11/21 11:54:19;;;;;;;11.65;6.03;;;;;;;;;;5094510;28;20061;-73
2021/11/21 11:56:50;;;;;;;9.35;6.22;;;;;;;;;;5112700;28;20024;-74
2021/11/21 11:59:26;;;;;;;9.95;6.38;;;;;;;;;;5112592;28;20471;-65
2021/11/21 12:01:56;;;;;;;9.13;6.32;;;;;;;;;;5112423;28;20096;-72
2021/11/21 12:04:22;;;;;;;10.95;6.32;;;;;;;;;;5112139;28;20039;-72
2021/11/21 12:06:53;;;;;;;10.77;6.43;;;;;;;;;;5094358;28;20028;-70
2021/11/21 12:09:19;;;;;;;14.23;7.07;;;;;;;;;;5112514;28;20047;-69
2021/11/21 12:12:00;;;;;;;13.73;6.70;;;;;;;;;;5112747;28;20088;-64
2021/11/21 12:14:29;;;;;;;10.50;6.68;;;;;;;;;;5112360;28;20569;-66
2021/11/21 12:16:55;;;;;;;10.57;6.95;;;;;;;;;;5112243;28;20026;-68
2021/11/21 12:19:40;;;;;;;15.63;8.40;;;;;;;;;;5112081;28;20382;-71
2021/11/21 12:22:27;;;;;;;13.35;7.15;;;;;;;;;;5094265;28;20384;-73
2021/11/21 12:25:13;;;;;;;9.45;6.43;;;;;;;;;;5112352;28;20069;-71
2021/11/21 12:27:44;;;;;;;15.70;7.63;;;;;;;;;;5095000;28;20103;-72
2021/11/21 12:30:13;;;;;;;11.38;7.32;;;;;;;;;;5112306;28;20019;-68
2021/11/21 12:32:50;;;;;;;15.57;7.15;;;;;;;;;;5112484;28;20023;-72
2021/11/21 12:35:25;;;;;;;13.75;7.43;;;;;;;;;;5112147;28;20054;-68
2021/11/21 12:37:52;;;;;;;12.40;7.72;;;;;;;;;;5108130;28;20028;-71
2021/11/21 12:40:20;;;;;;;14.38;7.38;;;;;;;;;;5073548;28;20556;-69
2021/11/21 12:42:52;;;;;;;17.42;8.95;;;;;;;;;;5073498;28;20505;-63
2021/11/21 12:45:19;;;;;;;20.05;7.75;;;;;;;;;;5108059;28;20447;-68
2021/11/21 12:47:47;;;;;;;15.07;7.10;;;;;;;;;;5111683;28;20016;-71
2021/11/21 12:50:18;;;;;;;13.98;7.30;;;;;;;;;;5110683;28;20023;-67
2021/11/21 12:52:51;;;;;;;10.98;6.82;;;;;;;;;;5101187;28;20077;-68
2021/11/21 12:55:17;;;;;;;12.82;7.78;;;;;;;;;;5091192;28;20024;-66
2021/11/21 12:57:47;;;;;;;13.75;8.18;;;;;;;;;;5090926;28;20089;-67
2021/11/21 13:00:14;;;;;;;12.35;7.28;;;;;;;;;;5091026;28;20039;-69
2021/11/21 13:02:40;;;;;;;14.50;8.45;;;;;;;;;;5076804;28;20042;-69
2021/11/21 13:05:06;;;;;;;14.00;8.45;;;;;;;;;;5111195;28;20035;-70
2021/11/21 13:07:37;;;;;;;14.13;7.38;;;;;;;;;;5113196;28;20130;-67
2021/11/21 13:10:06;;;;;;;11.57;7.03;;;;;;;;;;5115536;28;20016;-73
2021/11/21 13:12:33;;;;;;;11.38;6.78;;;;;;;;;;5115788;28;20047;-73
2021/11/21 13:15:10;;;;;;;14.27;7.82;;;;;;;;;;5107727;28;20478;-77
2021/11/21 13:17:37;;;;;;;11.68;7.35;;;;;;;;;;5097009;28;20024;-73
2021/11/21 13:20:11;;;;;;;13.13;7.43;;;;;;;;;;5105331;28;20012;-72
2021/11/21 13:22:46;;;;;;;15.18;7.70;;;;;;;;;;5115727;28;20058;-66
2021/11/21 13:25:26;;;;;;;10.75;6.88;;;;;;;;;;5095113;28;20510;-71
2021/11/21 13:27:52;;;;;;;15.95;7.28;;;;;;;;;;5095106;28;20027;-72
2021/11/21 13:30:20;;;;;;;14.73;7.65;;;;;;;;;;5095277;28;20035;-69
2021/11/21 13:32:47;;;;;;;14.43;8.40;;;;;;;;;;5093864;28;20578;-65
2021/11/21 13:35:19;;;;;;;13.82;7.05;;;;;;;;;;5095823;28;20024;-73
2021/11/21 13:37:46;;;;;;;10.25;6.70;;;;;;;;;;5114347;28;20027;-72
2021/11/21 13:40:13;;;;;;;11.13;6.82;;;;;;;;;;5115181;28;20036;-73
2021/11/21 13:42:40;;;;;;;20.80;10.48;;;;;;;;;;5115282;28;20027;-72
2021/11/21 13:45:06;;;;;;;16.60;10.27;;;;;;;;;;5096741;28;20386;-69
2021/11/21 13:47:33;;;;;;;18.48;11.07;;;;;;;;;;5115034;28;20493;-72
2021/11/21 13:49:59;;;;;;;23.17;13.45;;;;;;;;;;5114609;28;20102;-73
2021/11/21 13:52:27;;;;;;;21.55;11.68;;;;;;;;;;5096525;28;20039;-68
2021/11/21 13:54:54;;;;;;;19.63;11.25;;;;;;;;;;5113931;28;20047;-73
2021/11/21 13:57:22;;;;;;;13.30;9.02;;;;;;;;;;5114761;28;20027;-73
2021/11/21 13:59:48;;;;;;;15.63;8.73;;;;;;;;;;5115002;28;20038;-65
2021/11/21 14:02:14;;;;;;;16.02;7.78;;;;;;;;;;5114998;28;20073;-64
2021/11/21 14:04:41;;;;;;;15.85;8.52;;;;;;;;;;5114637;28;20040;-62
2021/11/21 14:07:10;;;;;;;13.07;7.30;;;;;;;;;;5114600;28;20020;-62
2021/11/21 14:09:57;;;;;;;12.40;7.82;;;;;;;;;;5114486;28;20047;-65
2021/11/21 14:12:25;;;;;;;14.60;9.13;;;;;;;;;;5081986;28;20016;-69
2021/11/21 14:15:04;;;;;;;16.98;7.95;;;;;;;;;;5096704;28;20028;-75
2021/11/21 14:17:30;;;;;;;16.50;9.10;;;;;;;;;;5115141;28;20066;-71
2021/11/21 14:19:56;;;;;;;22.67;9.50;;;;;;;;;;5082230;28;20047;-70
2021/11/21 14:22:29;;;;;;;15.80;7.70;;;;;;;;;;5114476;28;20016;-67
2021/11/21 14:24:58;;;;;;;13.90;6.60;;;;;;;;;;5105825;28;20036;-69
2021/11/21 14:27:29;;;;;;;16.17;9.18;;;;;;;;;;5076331;28;20077;-73
2021/11/21 14:30:07;;;;;;;22.33;11.57;;;;;;;;;;5094015;28;20027;-64
2021/11/21 14:32:33;;;;;;;14.20;9.10;;;;;;;;;;5093943;28;20027;-65
2021/11/21 14:35:00;;;;;;;12.77;7.88;;;;;;;;;;5093641;28;20028;-63
2021/11/21 14:37:26;;;;;;;17.50;9.13;;;;;;;;;;5094027;28;20031;-63
2021/11/21 14:39:54;;;;;;;20.27;8.13;;;;;;;;;;5093616;28;20024;-68